Terminal Aerodrome Forecast
Issued by NWS

Home | Current Version | Previous Version | Text Only | Print | Product List | Glossary Off
Versions: 1 2 3 4 5 6 7 8 9 10 11 12 13 14 15 16 17 18 19 20

000
FTUS43 KGRB 241133
TAFRHI
TAF
KRHI 241133Z 2412/2512 VRB03KT 4SM -DZ BR SCT006 OVC035
      TEMPO 2412/2414 2SM -FZRA BR BKN006
     FM241400 02005KT 6SM BR SCT006 OVC025
      TEMPO 2414/2418 2SM -RA BR BKN006
     FM241800 04007KT P6SM -RA OVC011
     FM250000 05006KT P6SM BKN015
     FM251100 06008KT P6SM BKN010=

USA.gov is the U.S. government's official web portal to all federal, state and local government web resources and services.